Wakefield, United Kingdom
Current Conditions -  °F | °C
As of 1:20 AM on Monday 24 Nov 2014 (Local Time) from EGNM Reporting Station
Few Clouds Few Clouds  
Wind Chill: 32°   Ceiling: Unl
Heat Index: 39°   Visibility: 6mi
Dew Point: 37°   Wind: 13mph
Humidity: 93%   Direction: 260°W
Pressure: 30.12"   Gusts: NA
Location:  53.68°N, 1.5°W
Report Text: EGNM 240120Z 26011KT 9999 FEW020 04/03 Q1020
Loading
Personal Weather Stations






























Interactive Weather Map New forecast layout! Learn more

10-Day Weather Forecast

Advertisements
Track Severe Weather on mobile